createdAt,value
2018-06-09T00:02:26.915Z,70.62
2018-06-09T00:04:56.088Z,70.79
2018-06-09T00:07:25.267Z,71.36
2018-06-09T00:09:54.213Z,71.39
2018-06-09T00:12:23.391Z,70.80
2018-06-09T00:14:52.564Z,71.02
2018-06-09T00:17:21.747Z,70.40
2018-06-09T00:19:50.927Z,70.11
2018-06-09T00:22:20.104Z,70.33
2018-06-09T00:24:49.279Z,70.70
2018-06-09T00:27:18.468Z,70.14
2018-06-09T00:29:47.640Z,70.42
2018-06-09T00:32:16.840Z,70.41
2018-06-09T00:34:46.016Z,70.34
2018-06-09T00:37:15.188Z,70.49
2018-06-09T00:39:44.371Z,70.54
2018-06-09T00:42:13.544Z,70.10
2018-06-09T00:44:42.728Z,69.60
2018-06-09T00:47:11.904Z,69.90
2018-06-09T00:49:41.096Z,69.94
2018-06-09T00:52:10.309Z,69.60
2018-06-09T00:54:39.255Z,70.14
2018-06-09T00:57:08.428Z,69.37
2018-06-09T00:59:37.597Z,70.12
2018-06-09T01:02:06.770Z,69.49
2018-06-09T01:04:35.928Z,70.19
2018-06-09T01:07:05.484Z,70.52
2018-06-09T01:09:34.413Z,71.73
2018-06-09T01:12:03.555Z,71.62
2018-06-09T01:14:32.717Z,71.49
2018-06-09T01:17:01.860Z,71.08
2018-06-09T01:19:31.016Z,70.39
2018-06-09T01:22:00.159Z,70.63
2018-06-09T01:24:29.321Z,71.10
2018-06-09T01:26:58.471Z,70.39
2018-06-09T01:29:27.613Z,70.82
2018-06-09T01:31:56.750Z,72.26
2018-06-09T01:34:25.907Z,75.19
2018-06-09T01:36:55.125Z,76.83
2018-06-09T01:39:24.271Z,77.16
2018-06-09T01:41:53.423Z,77.20
2018-06-09T01:44:22.571Z,77.86
2018-06-09T01:46:51.724Z,78.05
2018-06-09T01:49:20.667Z,76.13
2018-06-09T01:51:49.832Z,76.45
2018-06-09T01:54:19.012Z,77.11
2018-06-09T01:56:48.188Z,77.90
2018-06-09T01:59:17.360Z,78.00
2018-06-09T02:01:46.536Z,78.49
2018-06-09T02:04:15.710Z,78.27
2018-06-09T02:06:44.891Z,77.97
2018-06-09T02:09:14.075Z,78.67
2018-06-09T02:11:43.260Z,77.78
2018-06-09T02:14:12.437Z,79.26
2018-06-09T02:16:41.616Z,78.63
2018-06-09T02:19:10.784Z,77.51
2018-06-09T02:21:39.968Z,79.88
2018-06-09T02:24:09.140Z,78.71
2018-06-09T02:26:38.320Z,79.82
2018-06-09T02:29:07.496Z,79.83
2018-06-09T02:31:36.677Z,79.90
2018-06-09T02:34:05.987Z,80.15
2018-06-09T02:36:35.152Z,80.91
2018-06-09T02:39:06.517Z,78.76
2018-06-09T02:41:35.716Z,78.03
2018-06-09T02:44:04.897Z,78.82
2018-06-09T02:46:34.073Z,81.26
2018-06-09T02:49:03.269Z,81.41
2018-06-09T02:51:32.446Z,80.21
2018-06-09T02:54:01.620Z,80.59
2018-06-09T02:56:30.806Z,82.27
2018-06-09T02:58:59.980Z,83.36
2018-06-09T03:01:29.155Z,83.28
2018-06-09T03:03:58.339Z,82.59
2018-06-09T03:06:27.512Z,82.52
2018-06-09T03:08:56.692Z,82.17
2018-06-09T03:11:25.879Z,82.45
2018-06-09T03:13:55.056Z,83.60
2018-06-09T03:16:24.244Z,83.78
2018-06-09T03:18:53.429Z,83.82
2018-06-09T03:21:22.615Z,83.63
2018-06-09T03:23:51.789Z,83.60
2018-06-09T03:26:20.968Z,83.50
2018-06-09T03:28:49.905Z,82.93
2018-06-09T03:31:19.089Z,81.02
2018-06-09T03:33:48.260Z,80.32
2018-06-09T03:36:17.440Z,77.64
2018-06-09T03:38:46.621Z,77.34
2018-06-09T03:41:15.801Z,80.29
2018-06-09T03:43:44.968Z,80.41
2018-06-09T03:46:14.153Z,80.51
2018-06-09T03:48:43.339Z,79.17
2018-06-09T03:51:12.516Z,81.63
2018-06-09T03:53:41.692Z,80.91
2018-06-09T03:56:10.873Z,81.35
2018-06-09T03:58:40.052Z,81.67
2018-06-09T04:01:09.220Z,82.98
2018-06-09T04:03:38.405Z,82.74
2018-06-09T04:06:07.591Z,82.21
2018-06-09T04:08:36.772Z,81.79
2018-06-09T04:11:05.976Z,82.22
2018-06-09T04:13:35.147Z,82.10
2018-06-09T04:16:04.340Z,82.17
2018-06-09T04:18:33.524Z,81.38
2018-06-09T04:21:02.702Z,82.00
2018-06-09T04:23:31.892Z,81.47
2018-06-09T04:26:01.072Z,81.20
2018-06-09T04:28:30.259Z,80.09
2018-06-09T04:31:00.244Z,78.97
2018-06-09T04:33:29.427Z,79.01
2018-06-09T04:35:58.592Z,77.74
2018-06-09T04:38:27.539Z,76.14
2018-06-09T04:40:56.769Z,78.26
2018-06-09T04:43:25.957Z,77.05
2018-06-09T04:45:55.133Z,75.48
2018-06-09T04:48:24.328Z,74.44
2018-06-09T04:50:53.504Z,74.68
2018-06-09T04:53:22.688Z,75.10
2018-06-09T04:55:51.867Z,74.73
2018-06-09T04:58:20.813Z,75.09
2018-06-09T05:00:50.001Z,75.37
2018-06-09T05:03:19.176Z,75.51
2018-06-09T05:05:48.356Z,77.07
2018-06-09T05:08:17.535Z,77.73
2018-06-09T05:10:46.728Z,76.33
2018-06-09T05:13:15.900Z,76.15
2018-06-09T05:15:45.125Z,75.66
2018-06-09T05:18:14.248Z,75.25
2018-06-09T05:20:43.431Z,73.78
2018-06-09T05:23:12.608Z,74.29
2018-06-09T05:25:41.796Z,74.46
2018-06-09T05:28:10.975Z,73.50
2018-06-09T05:30:40.154Z,72.64
2018-06-09T05:33:09.336Z,72.16
2018-06-09T05:35:38.520Z,71.32
2018-06-09T05:38:07.963Z,71.35
2018-06-09T05:40:37.156Z,70.91
2018-06-09T05:43:06.332Z,70.81
2018-06-09T05:45:35.520Z,70.02
2018-06-09T05:48:04.696Z,69.76
2018-06-09T05:50:33.840Z,69.29
2018-06-09T05:53:02.992Z,69.05
2018-06-09T05:55:32.147Z,68.47
2018-06-09T05:58:01.295Z,69.15
2018-06-09T06:00:30.215Z,69.29
2018-06-09T06:02:59.408Z,69.11
2018-06-09T06:05:28.519Z,68.69
2018-06-09T06:07:57.672Z,68.72
2018-06-09T06:10:26.849Z,68.36
2018-06-09T06:12:56.028Z,68.80
2018-06-09T06:15:25.204Z,69.03
2018-06-09T06:17:54.384Z,69.58
2018-06-09T06:20:23.556Z,70.42
2018-06-09T06:22:52.503Z,70.81
2018-06-09T06:25:21.683Z,70.82
2018-06-09T06:27:50.866Z,70.30
2018-06-09T06:30:20.070Z,70.11
2018-06-09T06:32:49.252Z,68.73
2018-06-09T06:35:18.432Z,67.99
2018-06-09T06:37:47.383Z,67.79
2018-06-09T06:40:16.558Z,67.24
2018-06-09T06:42:45.735Z,67.03
2018-06-09T06:45:14.923Z,66.42
2018-06-09T06:47:44.096Z,65.86
2018-06-09T06:50:13.319Z,66.48
2018-06-09T06:52:42.480Z,67.04
2018-06-09T06:55:11.664Z,66.32
2018-06-09T06:57:40.844Z,67.14
2018-06-09T07:00:10.036Z,66.52
2018-06-09T07:02:39.204Z,64.90
2018-06-09T07:05:08.391Z,66.34
2018-06-09T07:07:37.567Z,64.34
2018-06-09T07:10:06.756Z,63.30
2018-06-09T07:12:35.930Z,63.85
2018-06-09T07:15:05.401Z,64.41
2018-06-09T07:17:34.342Z,63.91
2018-06-09T07:20:03.624Z,63.74
2018-06-09T07:22:32.836Z,63.68
2018-06-09T07:25:02.005Z,63.42
2018-06-09T07:27:31.184Z,63.21
2018-06-09T07:30:00.372Z,63.68
2018-06-09T07:32:29.315Z,64.03
2018-06-09T07:34:58.500Z,63.27
2018-06-09T07:37:27.677Z,62.99
2018-06-09T07:39:56.848Z,63.04
2018-06-09T07:42:26.032Z,63.11
2018-06-09T07:44:55.213Z,63.74
2018-06-09T07:47:24.400Z,64.33
2018-06-09T07:49:53.587Z,64.69
2018-06-09T07:52:22.768Z,62.98
2018-06-09T07:54:51.940Z,62.14
2018-06-09T07:57:20.891Z,61.59
2018-06-09T07:59:50.060Z,62.65
2018-06-09T08:02:20.478Z,61.68
2018-06-09T08:04:49.648Z,61.46
2018-06-09T08:07:18.884Z,62.17
2018-06-09T08:09:48.082Z,62.62
2018-06-09T08:12:17.261Z,62.62
2018-06-09T08:14:46.440Z,63.37
2018-06-09T08:17:15.385Z,63.16
2018-06-09T08:19:45.145Z,62.01
2018-06-09T08:22:14.103Z,61.01
2018-06-09T08:24:43.316Z,61.01
2018-06-09T08:27:12.523Z,61.78
2018-06-09T08:29:41.721Z,60.88
2018-06-09T08:32:10.908Z,60.95
2018-06-09T08:34:40.132Z,59.75
2018-06-09T08:37:09.336Z,61.10
2018-06-09T08:39:38.549Z,62.99
2018-06-09T08:42:07.816Z,61.77
2018-06-09T08:44:36.973Z,60.25
2018-06-09T08:47:06.188Z,60.67
2018-06-09T08:49:35.385Z,59.11
2018-06-09T08:52:04.435Z,58.34
2018-06-09T08:54:33.693Z,57.77
2018-06-09T08:57:02.849Z,57.13
2018-06-09T08:59:32.066Z,55.60
2018-06-09T09:02:01.307Z,56.52
2018-06-09T09:04:30.270Z,55.72
2018-06-09T09:06:59.468Z,55.63
2018-06-09T09:09:28.729Z,55.30
2018-06-09T09:11:57.882Z,54.16
2018-06-09T09:14:26.833Z,54.40
2018-06-09T09:16:56.021Z,53.49
2018-06-09T09:19:25.216Z,54.14
2018-06-09T09:21:54.412Z,53.74
2018-06-09T09:24:23.630Z,54.10
2018-06-09T09:26:52.820Z,52.48
2018-06-09T09:29:22.008Z,51.86
2018-06-09T09:31:51.224Z,51.69
2018-06-09T09:34:20.425Z,53.50
2018-06-09T09:36:49.607Z,51.49
2018-06-09T09:39:18.812Z,51.70
2018-06-09T09:41:48.010Z,52.20
2018-06-09T09:44:17.221Z,51.43
2018-06-09T09:46:46.421Z,51.57
2018-06-09T09:49:15.618Z,50.35
2018-06-09T09:51:44.846Z,49.45
2018-06-09T09:54:14.118Z,48.88
2018-06-09T09:56:43.346Z,50.00
2018-06-09T09:59:12.558Z,50.39
2018-06-09T10:01:41.765Z,50.33
2018-06-09T10:04:10.986Z,49.78
2018-06-09T10:06:40.192Z,49.64
2018-06-09T10:09:09.599Z,49.27
2018-06-09T10:11:38.800Z,48.11
2018-06-09T10:14:07.992Z,48.21
2018-06-09T10:16:37.198Z,47.00
2018-06-09T10:19:06.985Z,45.82
2018-06-09T10:21:36.305Z,45.65
2018-06-09T10:24:05.521Z,45.23
2018-06-09T10:26:34.754Z,44.60
2018-06-09T10:29:03.976Z,44.22
2018-06-09T10:31:33.220Z,43.85
2018-06-09T10:34:02.393Z,43.83
2018-06-09T10:36:31.620Z,41.59
2018-06-09T10:39:01.559Z,42.88
2018-06-09T10:41:30.829Z,43.38
2018-06-09T10:43:59.819Z,42.64
2018-06-09T10:46:28.809Z,44.16
2018-06-09T10:48:58.022Z,43.20
2018-06-09T10:51:26.976Z,42.54
2018-06-09T10:53:56.200Z,44.98
2018-06-09T10:56:28.544Z,45.83
2018-06-09T10:58:58.301Z,47.13
2018-06-09T11:01:28.074Z,48.32
2018-06-09T11:03:57.867Z,47.61
2018-06-09T11:06:27.652Z,47.91
2018-06-09T11:08:57.358Z,44.60
2018-06-09T11:11:27.063Z,42.53
2018-06-09T11:13:56.794Z,42.60
2018-06-09T11:16:26.427Z,40.88
2018-06-09T11:18:56.161Z,41.88
2018-06-09T11:21:25.825Z,40.43
2018-06-09T11:23:55.624Z,37.50
2018-06-09T11:26:25.329Z,41.04
2018-06-09T11:28:55.080Z,39.53
2018-06-09T11:31:24.762Z,43.14
2018-06-09T11:33:54.453Z,44.51
2018-06-09T11:36:24.174Z,46.21
2018-06-09T11:38:53.792Z,45.79
2018-06-09T11:41:23.371Z,45.33
2018-06-09T11:43:53.561Z,45.79
2018-06-09T11:46:23.190Z,43.11
2018-06-09T11:48:52.639Z,40.18
2018-06-09T11:51:22.153Z,40.84
2018-06-09T11:53:51.704Z,40.70
2018-06-09T11:56:21.378Z,40.25
2018-06-09T11:58:50.954Z,41.55
2018-06-09T12:01:20.443Z,42.46
2018-06-09T12:03:50.044Z,43.96
2018-06-09T12:06:19.645Z,43.35
2018-06-09T12:08:49.275Z,42.90
2018-06-09T12:11:18.823Z,43.88
2018-06-09T12:13:48.361Z,42.78
2018-06-09T12:16:17.999Z,42.95
2018-06-09T12:18:47.565Z,42.67
2018-06-09T12:21:17.121Z,43.02
2018-06-09T12:23:46.759Z,38.49
2018-06-09T12:26:16.104Z,37.64
2018-06-09T12:28:45.633Z,41.55
2018-06-09T12:31:15.159Z,44.29
2018-06-09T12:33:44.782Z,45.11
2018-06-09T12:36:14.036Z,44.72
2018-06-09T12:38:43.602Z,44.17
2018-06-09T12:41:13.021Z,44.83
2018-06-09T12:43:42.493Z,46.05
2018-06-09T12:46:11.969Z,45.87
2018-06-09T12:48:41.547Z,46.12
2018-06-09T12:51:11.083Z,46.08
2018-06-09T12:53:40.688Z,48.34
2018-06-09T12:56:10.301Z,48.62
2018-06-09T12:58:39.964Z,46.56
2018-06-09T13:01:09.813Z,47.55
2018-06-09T13:03:39.446Z,46.00
2018-06-09T13:06:09.080Z,48.15
2018-06-09T13:08:38.721Z,45.89
2018-06-09T13:11:08.383Z,42.50
2018-06-09T13:13:37.975Z,43.25
2018-06-09T13:16:07.610Z,46.16
2018-06-09T13:18:37.244Z,44.37
2018-06-09T13:21:06.989Z,46.31
2018-06-09T13:23:36.512Z,48.44
2018-06-09T13:26:06.126Z,49.72
2018-06-09T13:28:35.669Z,49.55
2018-06-09T13:31:05.188Z,46.45
2018-06-09T13:33:34.841Z,47.14
2018-06-09T13:36:04.456Z,47.83
2018-06-09T13:38:34.010Z,49.50
2018-06-09T13:41:03.586Z,48.52
2018-06-09T13:43:33.185Z,50.53
2018-06-09T13:46:02.767Z,49.29
2018-06-09T13:48:31.945Z,49.85
2018-06-09T13:51:01.454Z,50.12
2018-06-09T13:53:30.794Z,50.80
2018-06-09T13:56:00.389Z,50.35
2018-06-09T13:58:29.920Z,50.63
2018-06-09T14:00:59.604Z,51.79
2018-06-09T14:03:28.867Z,51.25
2018-06-09T14:05:58.423Z,52.22
2018-06-09T14:08:28.099Z,53.03
2018-06-09T14:10:58.858Z,53.13
2018-06-09T14:13:28.400Z,52.88
2018-06-09T14:15:57.985Z,53.09
2018-06-09T14:18:27.544Z,53.18
2018-06-09T14:20:57.127Z,53.24
2018-06-09T14:23:26.734Z,54.54
2018-06-09T14:25:56.432Z,55.01
2018-06-09T14:28:26.053Z,54.11
2018-06-09T14:30:55.749Z,53.14
2018-06-09T14:33:25.416Z,54.42
2018-06-09T14:35:54.731Z,54.57
2018-06-09T14:38:24.344Z,55.90
2018-06-09T14:40:53.935Z,55.54
2018-06-09T14:43:23.218Z,56.07
2018-06-09T14:45:52.723Z,58.96
2018-06-09T14:48:22.295Z,57.37
2018-06-09T14:50:51.933Z,54.93
2018-06-09T14:53:21.565Z,55.43
2018-06-09T14:55:50.869Z,57.65
2018-06-09T14:58:20.533Z,57.25
2018-06-09T15:00:49.793Z,57.26
2018-06-09T15:03:19.315Z,57.04
2018-06-09T15:05:48.903Z,57.81
2018-06-09T15:08:18.469Z,58.00
2018-06-09T15:10:48.145Z,60.13
2018-06-09T15:13:17.719Z,60.33
2018-06-09T15:15:47.322Z,60.29
2018-06-09T15:18:16.877Z,59.17
2018-06-09T15:20:46.500Z,59.02
2018-06-09T15:23:16.123Z,58.98
2018-06-09T15:25:45.374Z,60.10
2018-06-09T15:28:14.998Z,59.17
2018-06-09T15:30:44.538Z,59.49
2018-06-09T15:33:14.103Z,58.79
2018-06-09T15:35:43.635Z,58.50
2018-06-09T15:38:13.280Z,59.95
2018-06-09T15:40:42.835Z,60.55
2018-06-09T15:43:12.417Z,60.70
2018-06-09T15:45:41.937Z,61.38
2018-06-09T15:48:11.494Z,58.58
2018-06-09T15:50:41.129Z,54.36
2018-06-09T15:53:10.744Z,53.89
2018-06-09T15:55:40.420Z,53.89
2018-06-09T15:58:10.146Z,54.37
2018-06-09T16:00:39.789Z,55.38
2018-06-09T16:03:09.359Z,58.07
2018-06-09T16:05:38.565Z,59.72
2018-06-09T16:08:07.743Z,61.24
2018-06-09T16:10:37.033Z,61.30
2018-06-09T16:13:06.248Z,61.91
2018-06-09T16:15:35.430Z,61.71
2018-06-09T16:18:04.620Z,60.54
2018-06-09T16:20:33.824Z,59.74
2018-06-09T16:23:03.002Z,59.83
2018-06-09T16:25:32.259Z,59.97
2018-06-09T16:28:01.404Z,58.91
2018-06-09T16:30:30.347Z,57.36
2018-06-09T16:32:59.521Z,57.86
2018-06-09T16:35:28.701Z,56.87
2018-06-09T16:37:57.882Z,57.44
2018-06-09T16:40:27.052Z,56.51
2018-06-09T16:42:56.225Z,55.38
2018-06-09T16:45:25.411Z,59.65
2018-06-09T16:47:54.590Z,60.87
2018-06-09T16:50:23.789Z,61.74
2018-06-09T16:52:52.741Z,61.97
2018-06-09T16:55:21.935Z,63.77
2018-06-09T16:57:51.108Z,64.48
2018-06-09T17:00:20.329Z,65.18
2018-06-09T17:02:52.013Z,65.07
2018-06-09T17:05:21.363Z,64.80
2018-06-09T17:07:50.665Z,58.08
2018-06-09T17:10:19.886Z,59.74
2018-06-09T17:12:49.106Z,64.91
2018-06-09T17:15:18.305Z,66.35
2018-06-09T17:17:47.521Z,64.38
2018-06-09T17:20:16.725Z,64.14
2018-06-09T17:22:45.998Z,63.07
2018-06-09T17:25:15.164Z,61.44
2018-06-09T17:27:45.489Z,60.94
2018-06-09T17:30:14.703Z,60.15
2018-06-09T17:32:43.913Z,58.64
2018-06-09T17:35:13.117Z,59.21
2018-06-09T17:37:42.317Z,56.98
2018-06-09T17:40:11.284Z,54.63
2018-06-09T17:42:40.518Z,53.95
2018-06-09T17:45:09.743Z,52.70
2018-06-09T17:47:38.967Z,55.13
2018-06-09T17:50:08.208Z,56.65
2018-06-09T17:52:39.213Z,59.23
2018-06-09T17:55:08.678Z,60.41
2018-06-09T17:57:38.133Z,62.74
2018-06-09T18:00:07.418Z,62.53
2018-06-09T18:02:36.722Z,64.18
2018-06-09T18:05:05.985Z,65.45
2018-06-09T18:07:35.170Z,66.96
2018-06-09T18:10:04.372Z,69.28
2018-06-09T18:12:33.554Z,70.08
2018-06-09T18:15:03.422Z,71.41
2018-06-09T18:17:32.653Z,70.35
2018-06-09T18:20:01.637Z,70.62
2018-06-09T18:22:30.821Z,70.48
2018-06-09T18:25:00.010Z,70.60
2018-06-09T18:27:29.180Z,70.55
2018-06-09T18:29:58.357Z,69.48
2018-06-09T18:32:27.525Z,69.02
2018-06-09T18:34:56.747Z,69.13
2018-06-09T18:37:25.913Z,67.86
2018-06-09T18:39:55.117Z,69.38
2018-06-09T18:42:24.305Z,70.38
2018-06-09T18:44:53.493Z,71.48
2018-06-09T18:47:22.695Z,72.54
2018-06-09T18:49:52.062Z,74.56
2018-06-09T18:52:21.232Z,75.91
2018-06-09T18:54:50.420Z,76.83
2018-06-09T18:57:19.608Z,77.61
2018-06-09T18:59:48.867Z,78.68
2018-06-09T19:02:18.024Z,78.78
2018-06-09T19:04:47.205Z,78.90
2018-06-09T19:07:16.156Z,78.38
2018-06-09T19:09:45.414Z,77.25
2018-06-09T19:12:14.589Z,76.17
2018-06-09T19:14:43.537Z,76.40
2018-06-09T19:17:12.713Z,76.77
2018-06-09T19:19:41.888Z,76.63
2018-06-09T19:22:11.114Z,76.56
2018-06-09T19:24:40.034Z,77.51
2018-06-09T19:27:09.208Z,77.93
2018-06-09T19:29:38.442Z,79.05
2018-06-09T19:32:07.685Z,80.38
2018-06-09T19:34:36.848Z,80.21
2018-06-09T19:37:06.057Z,80.71
2018-06-09T19:39:34.983Z,81.40
2018-06-09T19:42:04.180Z,82.44
2018-06-09T19:44:33.352Z,82.02
2018-06-09T19:47:02.585Z,82.98
2018-06-09T19:49:31.761Z,83.40
2018-06-09T19:52:01.027Z,82.84
2018-06-09T19:54:30.153Z,83.50
2018-06-09T19:56:59.337Z,84.35
2018-06-09T19:59:28.516Z,83.76
2018-06-09T20:01:57.804Z,83.50
2018-06-09T20:04:26.985Z,83.23
2018-06-09T20:06:56.212Z,84.50
2018-06-09T20:09:25.397Z,85.22
2018-06-09T20:11:54.587Z,85.54
2018-06-09T20:14:23.786Z,84.21
2018-06-09T20:16:52.965Z,83.45
2018-06-09T20:19:22.195Z,84.59
2018-06-09T20:21:51.365Z,85.12
2018-06-09T20:24:20.551Z,84.35
2018-06-09T20:26:49.722Z,85.46
2018-06-09T20:29:18.915Z,85.03
2018-06-09T20:31:48.082Z,84.14
2018-06-09T20:34:17.033Z,83.60
2018-06-09T20:36:46.205Z,85.46
2018-06-09T20:39:15.391Z,87.68
2018-06-09T20:41:44.564Z,85.71
2018-06-09T20:44:13.516Z,88.84
2018-06-09T20:46:42.689Z,89.31
2018-06-09T20:49:11.897Z,89.21
2018-06-09T20:51:41.108Z,88.89
2018-06-09T20:54:10.304Z,89.00
2018-06-09T20:56:39.508Z,89.56
2018-06-09T20:59:08.719Z,89.74
2018-06-09T21:01:37.913Z,90.50
2018-06-09T21:04:07.130Z,89.98
2018-06-09T21:06:36.317Z,90.78
2018-06-09T21:09:07.909Z,90.67
2018-06-09T21:11:37.168Z,91.07
2018-06-09T21:14:06.360Z,91.09
2018-06-09T21:16:35.558Z,91.45
2018-06-09T21:19:05.236Z,92.03
2018-06-09T21:21:34.456Z,92.71
2018-06-09T21:24:03.643Z,92.26
2018-06-09T21:26:38.257Z,91.59
2018-06-09T21:29:12.506Z,92.83
2018-06-09T21:31:45.127Z,92.64
2018-06-09T21:34:36.026Z,92.00
2018-06-09T21:37:10.315Z,91.45
2018-06-09T21:39:44.769Z,91.32
2018-06-09T21:42:19.388Z,91.75
2018-06-09T21:44:52.769Z,92.23
2018-06-09T21:47:21.735Z,92.08
2018-06-09T21:49:50.940Z,92.43
2018-06-09T21:52:20.220Z,92.71
2018-06-09T21:54:49.453Z,92.92
2018-06-09T21:57:18.669Z,93.33
2018-06-09T21:59:47.632Z,93.59
2018-06-09T22:02:16.823Z,93.35
2018-06-09T22:04:46.162Z,93.75
2018-06-09T22:07:15.301Z,93.48
2018-06-09T22:09:44.496Z,93.40
2018-06-09T22:12:13.693Z,93.65
2018-06-09T22:14:42.897Z,92.35
2018-06-09T22:17:12.096Z,92.66
2018-06-09T22:19:41.316Z,93.14
2018-06-09T22:22:10.553Z,93.03
2018-06-09T22:24:39.713Z,93.05
2018-06-09T22:27:08.921Z,93.05
2018-06-09T22:29:37.898Z,93.15
2018-06-09T22:32:07.106Z,93.11
2018-06-09T22:34:36.305Z,92.73
2018-06-09T22:37:05.522Z,92.74
2018-06-09T22:39:34.717Z,92.31
2018-06-09T22:42:03.929Z,92.03
2018-06-09T22:44:33.136Z,91.95
2018-06-09T22:47:02.391Z,91.37
2018-06-09T22:49:31.584Z,91.92
2018-06-09T22:52:00.775Z,92.63
2018-06-09T22:54:29.993Z,92.34
2018-06-09T22:56:58.968Z,92.30
2018-06-09T22:59:28.160Z,93.17
2018-06-09T23:01:57.350Z,93.14
2018-06-09T23:04:26.553Z,93.42
2018-06-09T23:06:55.747Z,93.98
2018-06-09T23:09:24.957Z,93.22
2018-06-09T23:11:54.143Z,93.19
2018-06-09T23:14:23.379Z,92.98
2018-06-09T23:16:52.340Z,92.92
2018-06-09T23:19:21.548Z,92.69
2018-06-09T23:21:50.748Z,93.13
2018-06-09T23:24:20.028Z,92.83
2018-06-09T23:26:49.233Z,92.90
2018-06-09T23:29:18.436Z,93.22
2018-06-09T23:31:47.625Z,93.54
2018-06-09T23:34:16.818Z,92.92
2018-06-09T23:36:46.004Z,93.05
2018-06-09T23:39:15.225Z,91.77
2018-06-09T23:41:44.503Z,91.44
2018-06-09T23:44:13.716Z,91.92
2018-06-09T23:46:42.909Z,91.66
2018-06-09T23:49:12.112Z,91.52
2018-06-09T23:51:41.324Z,91.96
2018-06-09T23:54:10.549Z,91.79
2018-06-09T23:56:39.743Z,91.58
2018-06-09T23:59:09.077Z,91.74
